Huvudsida
METAR-TAF:

METAR-TAF

Flygplatser :

Luleå, Sverige

Luleå Airport

latitud: 65-33N, longitud: 022-08E, höjd: 17 m

Aktuellt väderrapport

Denna rapport gjordes för 18 minuter sedan, klockan 11:20 UTC
Stilla vind
Temperatur -15°C
Fuktighet 92%
Tryck 1003 hPa
Sikt 10 km eller mer
Inga moln under 1 500 m eller inga cumulonimbus

METAR: ESPA 171120Z 00000KT CAVOK M15/M16 Q1003

Tid: 12:38 (11:38 UTC)

Väderprognos

Denna rapport gjordes för 3 timmar och 8 minuter sedan, klockan 08:30 UTC
Prognos gäller från 17 kl. 09 UTC till 17 kl. 18 UTC
Vind 2 kt från väst
Sikt 10 km eller mer
Inga moln under 1 500 m eller inga cumulonimbus
Sannolikhet 40%
från 17 kl. 09 UTC till 17 kl. 11 UTC
Brutna moln på en höjd av 300 ft

TAF: ESPA 170830Z 1709/1718 26002KT CAVOK PROB40 1709/1711 BKN003

Aktuella väderrapporter och prognoser från 4000 flygplatser (METAR- och TAF-rapporter).

De tillgängliga stationerna syns som gula och röda prickar på kartan.

För musen över prickarna för att se namnen på stationerna.

Klicka sedan för att få väderrapporter och prognoser.

För att ändra kartan: Klicka på de gröna knapparna med ett svart kors på för att zooma in; den gröna knappen med ett streck på för att zooma ut; eller på de gröna pilarna för angränsande kartor.


METAR-TAF: